createdAt,value
2022-07-30T00:02:19.071Z,100.00
2022-07-30T00:04:48.970Z,100.00
2022-07-30T00:07:17.645Z,100.00
2022-07-30T00:09:45.724Z,100.00
2022-07-30T00:12:13.850Z,100.00
2022-07-30T00:14:42.309Z,100.00
2022-07-30T00:17:10.781Z,100.00
2022-07-30T00:19:38.723Z,100.00
2022-07-30T00:22:08.110Z,100.00
2022-07-30T00:24:36.258Z,100.00
2022-07-30T00:27:04.421Z,100.00
2022-07-30T00:29:32.775Z,100.00
2022-07-30T00:32:01.106Z,100.00
2022-07-30T00:34:29.037Z,100.00
2022-07-30T00:36:57.625Z,100.00
2022-07-30T00:39:29.937Z,100.00
2022-07-30T00:42:00.470Z,100.00
2022-07-30T00:44:29.640Z,100.00
2022-07-30T00:46:58.409Z,100.00
2022-07-30T00:49:27.400Z,100.00
2022-07-30T00:51:56.964Z,100.00
2022-07-30T00:54:25.105Z,100.00
2022-07-30T00:56:54.800Z,100.00
2022-07-30T00:59:22.852Z,100.00
2022-07-30T01:01:50.851Z,100.00
2022-07-30T01:04:19.189Z,100.00
2022-07-30T01:06:47.930Z,100.00
2022-07-30T01:09:15.889Z,100.00
2022-07-30T01:11:45.433Z,100.00
2022-07-30T01:14:15.391Z,100.00
2022-07-30T01:16:45.277Z,100.00
2022-07-30T01:19:38.680Z,100.00
2022-07-30T01:22:15.583Z,100.00
2022-07-30T01:24:48.471Z,100.00
2022-07-30T01:27:19.993Z,100.00
2022-07-30T01:29:50.186Z,100.00
2022-07-30T01:32:20.736Z,100.00
2022-07-30T01:34:50.230Z,100.00
2022-07-30T01:37:20.488Z,100.00
2022-07-30T01:39:50.509Z,100.00
2022-07-30T01:42:21.844Z,100.00
2022-07-30T01:44:51.166Z,100.00
2022-07-30T01:47:21.040Z,100.00
2022-07-30T01:49:51.290Z,100.00
2022-07-30T01:52:21.062Z,100.00
2022-07-30T01:54:52.172Z,100.00
2022-07-30T01:57:23.316Z,100.00
2022-07-30T01:59:56.164Z,100.00
2022-07-30T02:02:24.628Z,100.00
2022-07-30T02:04:52.886Z,100.00
2022-07-30T02:07:25.813Z,100.00
2022-07-30T02:09:59.676Z,100.00
2022-07-30T02:12:33.482Z,100.00
2022-07-30T02:15:15.466Z,100.00
2022-07-30T02:17:46.908Z,100.00
2022-07-30T02:20:18.383Z,100.00
2022-07-30T02:22:48.660Z,100.00
2022-07-30T02:25:19.323Z,100.00
2022-07-30T02:27:53.906Z,100.00
2022-07-30T02:30:26.903Z,100.00
2022-07-30T02:33:00.800Z,100.00
2022-07-30T02:35:31.601Z,100.00
2022-07-30T02:38:03.283Z,100.00
2022-07-30T02:40:32.998Z,100.00
2022-07-30T02:43:03.765Z,100.00
2022-07-30T02:45:31.864Z,100.00
2022-07-30T02:48:02.701Z,100.00
2022-07-30T02:50:32.249Z,100.00
2022-07-30T02:53:03.912Z,100.00
2022-07-30T02:55:35.818Z,100.00
2022-07-30T02:58:08.574Z,100.00
2022-07-30T03:00:38.445Z,100.00
2022-07-30T03:03:08.519Z,100.00
2022-07-30T03:05:39.897Z,100.00
2022-07-30T03:08:09.701Z,100.00
2022-07-30T03:10:39.140Z,100.00
2022-07-30T03:13:10.498Z,100.00
2022-07-30T03:15:43.485Z,100.00
2022-07-30T03:18:14.445Z,100.00
2022-07-30T03:20:45.739Z,100.00
2022-07-30T03:23:19.486Z,100.00
2022-07-30T03:25:52.160Z,100.00
2022-07-30T03:28:26.616Z,100.00
2022-07-30T03:30:55.246Z,100.00
2022-07-30T03:33:24.998Z,100.00
2022-07-30T03:36:08.157Z,100.00
2022-07-30T03:38:38.764Z,100.00
2022-07-30T03:41:08.512Z,100.00
2022-07-30T03:43:40.355Z,100.00
2022-07-30T03:46:11.706Z,100.00
2022-07-30T03:48:44.207Z,100.00
2022-07-30T03:51:12.998Z,100.00
2022-07-30T03:53:43.248Z,100.00
2022-07-30T03:56:50.122Z,100.00
2022-07-30T03:59:46.883Z,100.00
2022-07-30T04:02:15.160Z,100.00
2022-07-30T04:05:13.529Z,100.00
2022-07-30T04:07:45.252Z,100.00
2022-07-30T04:10:15.685Z,100.00
2022-07-30T04:13:09.897Z,100.00
2022-07-30T04:16:37.978Z,100.00
2022-07-30T04:18:43.896Z,100.00
2022-07-30T04:21:17.266Z,100.00
2022-07-30T04:24:02.379Z,100.00
2022-07-30T04:26:35.907Z,100.00
2022-07-30T04:29:07.489Z,100.00
2022-07-30T04:31:40.734Z,100.00
2022-07-30T04:34:29.717Z,100.00
2022-07-30T04:36:58.257Z,100.00
2022-07-30T04:39:27.006Z,100.00
2022-07-30T04:41:55.592Z,100.00
2022-07-30T04:44:35.776Z,100.00
2022-07-30T04:47:24.659Z,100.00
2022-07-30T04:50:24.730Z,100.00
2022-07-30T04:52:54.824Z,100.00
2022-07-30T04:55:28.950Z,100.00
2022-07-30T04:57:58.848Z,100.00
2022-07-30T05:00:30.904Z,100.00
2022-07-30T05:03:04.588Z,100.00
2022-07-30T05:05:34.727Z,100.00
2022-07-30T05:08:04.241Z,100.00
2022-07-30T05:10:33.087Z,100.00
2022-07-30T05:13:01.631Z,100.00
2022-07-30T05:15:37.419Z,100.00
2022-07-30T05:18:09.892Z,100.00
2022-07-30T05:20:41.283Z,100.00
2022-07-30T05:23:16.022Z,100.00
2022-07-30T05:25:51.424Z,100.00
2022-07-30T05:28:30.256Z,100.00
2022-07-30T05:31:02.013Z,100.00
2022-07-30T05:33:42.501Z,100.00
2022-07-30T05:36:13.025Z,100.00
2022-07-30T05:38:41.885Z,100.00
2022-07-30T05:41:32.348Z,100.00
2022-07-30T05:44:23.894Z,100.00
2022-07-30T05:46:53.126Z,100.00
2022-07-30T05:49:22.859Z,100.00
2022-07-30T05:51:51.164Z,100.00
2022-07-30T05:54:19.800Z,100.00
2022-07-30T05:57:17.129Z,100.00
2022-07-30T05:59:47.522Z,100.00
2022-07-30T06:02:29.184Z,100.00
2022-07-30T06:05:19.402Z,100.00
2022-07-30T06:07:48.165Z,100.00
2022-07-30T06:10:28.061Z,100.00
2022-07-30T06:12:56.189Z,100.00
2022-07-30T06:15:25.977Z,100.00
2022-07-30T06:18:01.588Z,100.00
2022-07-30T06:20:52.485Z,100.00
2022-07-30T06:23:27.573Z,100.00
2022-07-30T06:26:09.666Z,100.00
2022-07-30T06:28:39.148Z,100.00
2022-07-30T06:31:34.323Z,100.00
2022-07-30T06:34:02.510Z,100.00
2022-07-30T06:36:37.741Z,100.00
2022-07-30T06:39:10.101Z,100.00
2022-07-30T06:41:58.379Z,100.00
2022-07-30T06:44:43.061Z,100.00
2022-07-30T06:47:29.094Z,100.00
2022-07-30T06:50:02.323Z,100.00
2022-07-30T06:52:33.558Z,100.00
2022-07-30T06:55:01.949Z,100.00
2022-07-30T06:57:46.767Z,100.00
2022-07-30T07:00:34.802Z,100.00
2022-07-30T07:03:11.616Z,100.00
2022-07-30T07:05:40.475Z,100.00
2022-07-30T07:08:09.992Z,100.00
2022-07-30T07:10:44.013Z,100.00
2022-07-30T07:13:32.151Z,100.00
2022-07-30T07:16:02.407Z,100.00
2022-07-30T07:18:32.325Z,100.00
2022-07-30T07:21:06.077Z,100.00
2022-07-30T07:23:41.921Z,100.00
2022-07-30T07:26:25.280Z,100.00
2022-07-30T07:28:53.338Z,100.00
2022-07-30T07:32:04.506Z,100.00
2022-07-30T07:34:10.792Z,100.00
2022-07-30T07:36:41.302Z,100.00
2022-07-30T07:39:13.111Z,100.00
2022-07-30T07:41:48.827Z,100.00
2022-07-30T07:44:20.912Z,100.00
2022-07-30T07:46:49.355Z,100.00
2022-07-30T07:49:17.642Z,100.00
2022-07-30T07:51:51.483Z,100.00
2022-07-30T07:54:23.263Z,100.00
2022-07-30T07:56:55.999Z,100.00
2022-07-30T07:59:40.202Z,100.00
2022-07-30T08:02:16.778Z,100.00
2022-07-30T08:04:45.288Z,100.00
2022-07-30T08:07:13.766Z,100.00
2022-07-30T08:09:52.198Z,100.00
2022-07-30T08:12:27.394Z,100.00
2022-07-30T08:15:13.790Z,100.00
2022-07-30T08:18:00.590Z,100.00
2022-07-30T08:20:40.811Z,100.00
2022-07-30T08:23:09.274Z,100.00
2022-07-30T08:25:38.636Z,100.00
2022-07-30T08:28:06.881Z,100.00
2022-07-30T08:33:04.166Z,100.00
2022-07-30T08:35:32.544Z,100.00
2022-07-30T08:38:00.547Z,100.00
2022-07-30T08:40:33.875Z,100.00
2022-07-30T08:43:08.049Z,96.22
2022-07-30T08:45:38.691Z,100.00
2022-07-30T08:48:23.162Z,98.80
2022-07-30T08:50:51.712Z,96.96
2022-07-30T08:53:35.457Z,92.18
2022-07-30T08:56:05.678Z,89.71
2022-07-30T08:58:36.016Z,83.28
2022-07-30T09:01:04.834Z,91.52
2022-07-30T09:03:33.208Z,93.26
2022-07-30T09:06:03.459Z,90.80
2022-07-30T09:08:32.866Z,81.27
2022-07-30T09:11:01.651Z,84.59
2022-07-30T09:13:31.815Z,87.33
2022-07-30T09:16:03.410Z,84.27
2022-07-30T09:18:35.358Z,85.37
2022-07-30T09:21:16.020Z,79.25
2022-07-30T09:23:58.538Z,81.46
2022-07-30T09:26:55.512Z,74.25
2022-07-30T09:29:41.787Z,80.77
2022-07-30T09:32:49.228Z,75.17
2022-07-30T09:35:35.674Z,76.86
2022-07-30T09:38:13.607Z,75.32
2022-07-30T09:40:57.742Z,74.72
2022-07-30T09:43:48.313Z,77.84
2022-07-30T09:46:42.631Z,77.24
2022-07-30T09:49:18.008Z,76.92
2022-07-30T09:51:54.672Z,75.80
2022-07-30T09:54:27.018Z,77.00
2022-07-30T09:59:59.751Z,75.72
2022-07-30T10:02:33.419Z,79.61
2022-07-30T10:05:24.514Z,79.22
2022-07-30T10:07:54.755Z,81.00
2022-07-30T10:10:26.201Z,77.25
2022-07-30T10:12:59.328Z,74.95
2022-07-30T10:15:32.395Z,73.09
2022-07-30T10:18:01.986Z,77.40
2022-07-30T10:20:50.315Z,75.96
2022-07-30T10:23:32.695Z,78.99
2022-07-30T10:26:29.174Z,78.28
2022-07-30T10:29:18.510Z,72.09
2022-07-30T10:31:54.194Z,72.75
2022-07-30T10:34:23.679Z,77.03
2022-07-30T10:36:59.033Z,77.71
2022-07-30T10:39:34.581Z,78.98
2022-07-30T10:42:13.679Z,76.34
2022-07-30T10:45:17.464Z,78.90
2022-07-30T10:47:48.876Z,76.64
2022-07-30T10:50:22.450Z,74.63
2022-07-30T10:52:53.790Z,76.99
2022-07-30T10:55:37.166Z,77.51
2022-07-30T10:58:10.008Z,76.77
2022-07-30T11:01:02.486Z,72.81
2022-07-30T11:03:41.027Z,74.44
2022-07-30T11:06:29.378Z,70.69
2022-07-30T11:08:58.121Z,71.96
2022-07-30T11:12:05.417Z,72.25
2022-07-30T11:15:07.255Z,71.94
2022-07-30T11:18:12.524Z,73.20
2022-07-30T11:20:43.272Z,71.57
2022-07-30T11:23:40.009Z,68.55
2022-07-30T11:26:13.949Z,70.52
2022-07-30T11:28:45.301Z,67.29
2022-07-30T11:31:56.993Z,68.52
2022-07-30T11:34:30.728Z,69.33
2022-07-30T11:37:19.226Z,68.76
2022-07-30T11:40:13.262Z,69.54
2022-07-30T11:42:43.204Z,69.53
2022-07-30T11:45:27.113Z,71.05
2022-07-30T11:48:00.320Z,65.48
2022-07-30T11:50:32.556Z,66.85
2022-07-30T11:53:02.544Z,67.27
2022-07-30T11:55:32.685Z,69.65
2022-07-30T11:58:02.348Z,63.62
2022-07-30T12:00:36.382Z,66.65
2022-07-30T12:03:12.569Z,66.76
2022-07-30T12:05:43.566Z,66.38
2022-07-30T12:08:35.405Z,65.15
2022-07-30T12:11:02.209Z,65.63
2022-07-30T12:13:43.622Z,67.60
2022-07-30T12:16:16.221Z,65.43
2022-07-30T12:18:45.158Z,65.99
2022-07-30T12:21:16.164Z,66.76
2022-07-30T12:23:54.561Z,61.42
2022-07-30T12:26:24.677Z,62.47
2022-07-30T12:28:55.960Z,61.06
2022-07-30T12:31:24.443Z,64.96
2022-07-30T12:33:52.945Z,61.65
2022-07-30T12:36:31.944Z,64.35
2022-07-30T12:39:01.451Z,67.50
2022-07-30T12:41:44.067Z,74.75
2022-07-30T12:44:12.330Z,77.51
2022-07-30T12:46:41.806Z,80.32
2022-07-30T12:49:21.214Z,79.05
2022-07-30T12:52:04.632Z,81.50
2022-07-30T12:54:32.690Z,81.61
2022-07-30T12:57:03.011Z,81.79
2022-07-30T12:59:32.711Z,83.10
2022-07-30T13:02:01.279Z,87.71
2022-07-30T13:04:29.880Z,87.75
2022-07-30T13:07:07.031Z,89.86
2022-07-30T13:09:35.695Z,88.89
2022-07-30T13:12:04.099Z,89.63
2022-07-30T13:14:32.411Z,87.48
2022-07-30T13:17:01.261Z,90.50
2022-07-30T13:19:29.536Z,88.72
2022-07-30T13:21:57.862Z,86.19
2022-07-30T13:24:29.011Z,87.98
2022-07-30T13:26:57.417Z,86.17
2022-07-30T13:29:25.677Z,88.97
2022-07-30T13:31:53.873Z,90.32
2022-07-30T13:34:22.147Z,91.01
2022-07-30T13:36:50.160Z,86.84
2022-07-30T13:39:18.272Z,88.02
2022-07-30T13:41:47.826Z,89.87
2022-07-30T13:44:15.905Z,89.95
2022-07-30T13:46:43.937Z,91.26
2022-07-30T13:49:12.054Z,90.59
2022-07-30T13:51:40.171Z,90.74
2022-07-30T13:54:08.692Z,90.49
2022-07-30T13:56:41.918Z,89.11
2022-07-30T13:59:11.824Z,89.83
2022-07-30T14:01:40.007Z,91.02
2022-07-30T14:04:08.615Z,90.16
2022-07-30T14:06:36.843Z,90.30
2022-07-30T14:09:05.016Z,88.11
2022-07-30T14:11:33.881Z,88.67
2022-07-30T14:14:01.806Z,85.24
2022-07-30T14:16:46.574Z,82.88
2022-07-30T14:19:23.886Z,82.38
2022-07-30T14:21:53.215Z,81.65
2022-07-30T14:24:22.110Z,82.20
2022-07-30T14:26:53.358Z,81.80
2022-07-30T14:29:26.195Z,83.21
2022-07-30T14:31:55.850Z,86.92
2022-07-30T14:34:24.631Z,87.55
2022-07-30T14:36:52.881Z,87.66
2022-07-30T14:39:21.407Z,87.43
2022-07-30T14:41:53.605Z,93.09
2022-07-30T14:44:24.394Z,95.00
2022-07-30T14:46:53.482Z,91.85
2022-07-30T14:49:24.031Z,93.09
2022-07-30T14:51:52.681Z,92.39
2022-07-30T14:54:21.001Z,90.97
2022-07-30T14:56:49.544Z,90.82
2022-07-30T14:59:18.197Z,90.80
2022-07-30T15:01:48.276Z,90.64
2022-07-30T15:04:16.321Z,89.61
2022-07-30T15:06:45.878Z,84.88
2022-07-30T15:09:14.327Z,86.22
2022-07-30T15:12:07.881Z,86.99
2022-07-30T15:14:30.744Z,84.77
2022-07-30T15:17:03.939Z,84.75
2022-07-30T15:19:33.127Z,84.62
2022-07-30T15:22:04.010Z,85.65
2022-07-30T15:24:32.551Z,86.05
2022-07-30T15:27:01.571Z,85.98
2022-07-30T15:29:30.262Z,86.63
2022-07-30T15:32:00.547Z,84.72
2022-07-30T15:34:33.948Z,84.23
2022-07-30T15:37:05.380Z,84.37
2022-07-30T15:39:34.166Z,84.72
2022-07-30T15:42:02.566Z,84.91
2022-07-30T15:44:31.277Z,86.93
2022-07-30T15:46:59.314Z,87.85
2022-07-30T15:49:27.930Z,86.82
2022-07-30T15:51:56.170Z,84.83
2022-07-30T15:54:27.035Z,83.46
2022-07-30T15:57:01.068Z,83.82
2022-07-30T15:59:30.408Z,83.26
2022-07-30T16:01:59.280Z,84.81
2022-07-30T16:04:31.592Z,83.38
2022-07-30T16:07:00.734Z,82.64
2022-07-30T16:09:30.431Z,81.15
2022-07-30T16:11:59.080Z,80.37
2022-07-30T16:14:27.657Z,78.91
2022-07-30T16:16:55.934Z,75.43
2022-07-30T16:19:24.027Z,75.69
2022-07-30T16:21:52.076Z,72.33
2022-07-30T16:24:20.182Z,71.98
2022-07-30T16:26:50.630Z,71.17
2022-07-30T16:29:18.980Z,72.24
2022-07-30T16:31:47.652Z,72.31
2022-07-30T16:34:15.770Z,75.33
2022-07-30T16:36:44.064Z,75.95
2022-07-30T16:39:12.206Z,76.32
2022-07-30T16:41:41.169Z,78.25
2022-07-30T16:44:10.888Z,78.36
2022-07-30T16:46:39.095Z,76.94
2022-07-30T16:49:07.602Z,77.71
2022-07-30T16:51:35.741Z,77.39
2022-07-30T16:54:03.801Z,79.30
2022-07-30T16:56:31.834Z,79.57
2022-07-30T16:58:59.950Z,77.84
2022-07-30T17:01:31.143Z,76.85
2022-07-30T17:03:59.385Z,77.73
2022-07-30T17:06:27.590Z,78.68
2022-07-30T17:08:55.571Z,78.79
2022-07-30T17:11:47.574Z,80.58
2022-07-30T17:14:12.502Z,79.36
2022-07-30T17:16:42.482Z,80.72
2022-07-30T17:19:10.434Z,82.47
2022-07-30T17:21:39.117Z,81.11
2022-07-30T17:24:11.462Z,82.08
2022-07-30T17:26:43.118Z,82.23
2022-07-30T17:29:14.109Z,84.13
2022-07-30T17:31:44.866Z,83.79
2022-07-30T17:34:14.335Z,85.56
2022-07-30T17:36:51.407Z,84.01
2022-07-30T17:40:04.383Z,83.81
2022-07-30T17:42:10.118Z,85.80
2022-07-30T17:44:39.362Z,86.10
2022-07-30T17:47:14.392Z,85.88
2022-07-30T17:49:43.020Z,83.21
2022-07-30T17:52:11.196Z,85.59
2022-07-30T17:54:39.192Z,87.87
2022-07-30T17:57:07.534Z,89.85
2022-07-30T17:59:35.661Z,90.76
2022-07-30T18:02:04.719Z,89.02
2022-07-30T18:04:34.984Z,92.33
2022-07-30T18:07:02.875Z,91.27
2022-07-30T18:09:40.114Z,90.96
2022-07-30T18:12:09.178Z,91.34
2022-07-30T18:14:37.451Z,93.11
2022-07-30T18:17:06.869Z,92.71
2022-07-30T18:19:38.667Z,92.61
2022-07-30T18:22:08.863Z,92.65
2022-07-30T18:24:40.491Z,92.23
2022-07-30T18:27:12.025Z,91.36
2022-07-30T18:29:40.007Z,91.58
2022-07-30T18:32:08.530Z,91.53
2022-07-30T18:34:38.145Z,92.91
2022-07-30T18:37:06.278Z,92.87
2022-07-30T18:39:34.226Z,93.18
2022-07-30T18:42:03.658Z,93.10
2022-07-30T18:44:32.510Z,91.59
2022-07-30T18:47:00.975Z,91.93
2022-07-30T18:49:37.827Z,93.48
2022-07-30T18:52:08.401Z,92.77
2022-07-30T18:54:37.746Z,92.85
2022-07-30T18:57:08.197Z,93.56
2022-07-30T18:59:39.330Z,94.16
2022-07-30T19:02:08.616Z,93.88
2022-07-30T19:04:36.632Z,95.02
2022-07-30T19:07:04.816Z,96.29
2022-07-30T19:09:34.576Z,94.72
2022-07-30T19:12:02.891Z,94.48
2022-07-30T19:14:31.130Z,94.26
2022-07-30T19:16:59.467Z,94.33
2022-07-30T19:19:28.486Z,95.42
2022-07-30T19:21:57.250Z,95.88
2022-07-30T19:24:27.068Z,96.19
2022-07-30T19:26:57.933Z,95.49
2022-07-30T19:29:26.334Z,95.59
2022-07-30T19:31:54.572Z,96.19
2022-07-30T19:34:22.863Z,96.58
2022-07-30T19:36:50.998Z,97.39
2022-07-30T19:39:21.860Z,97.46
2022-07-30T19:41:51.042Z,97.80
2022-07-30T19:44:20.569Z,98.97
2022-07-30T19:46:51.752Z,98.48
2022-07-30T19:49:21.614Z,99.35
2022-07-30T19:52:17.702Z,100.00
2022-07-30T19:54:38.239Z,100.00
2022-07-30T19:57:06.300Z,100.00
2022-07-30T19:59:45.616Z,100.00
2022-07-30T20:02:24.119Z,100.00
2022-07-30T20:04:54.852Z,98.94
2022-07-30T20:07:27.534Z,98.56
2022-07-30T20:09:55.772Z,98.74
2022-07-30T20:12:24.235Z,100.00
2022-07-30T20:14:53.776Z,99.56
2022-07-30T20:17:23.992Z,99.20
2022-07-30T20:19:58.120Z,99.12
2022-07-30T20:22:27.827Z,98.65
2022-07-30T20:24:55.793Z,96.55
2022-07-30T20:27:36.582Z,96.69
2022-07-30T20:30:09.970Z,95.88
2022-07-30T20:32:42.299Z,95.19
2022-07-30T20:35:14.504Z,94.43
2022-07-30T20:37:54.951Z,94.80
2022-07-30T20:40:24.292Z,94.11
2022-07-30T20:42:55.246Z,94.86
2022-07-30T20:45:25.311Z,93.61
2022-07-30T20:48:08.407Z,94.21
2022-07-30T20:50:46.122Z,95.21
2022-07-30T20:53:17.310Z,96.10
2022-07-30T20:55:45.276Z,96.73
2022-07-30T20:58:16.494Z,96.44
2022-07-30T21:00:49.649Z,96.44
2022-07-30T21:03:21.214Z,95.38
2022-07-30T21:05:51.186Z,95.09
2022-07-30T21:08:25.280Z,94.53
2022-07-30T21:10:55.545Z,95.16
2022-07-30T21:16:16.117Z,96.82
2022-07-30T21:18:49.981Z,95.80
2022-07-30T21:21:28.670Z,96.10
2022-07-30T21:24:11.890Z,95.77
2022-07-30T21:26:40.883Z,96.21
2022-07-30T21:29:09.203Z,96.29
2022-07-30T21:31:58.486Z,93.69
2022-07-30T21:34:30.918Z,92.47
2022-07-30T21:37:03.512Z,94.40
2022-07-30T21:39:31.675Z,95.22
2022-07-30T21:42:08.487Z,95.86
2022-07-30T21:44:37.521Z,96.13
2022-07-30T21:47:10.398Z,96.32
2022-07-30T21:49:39.859Z,96.73
2022-07-30T21:52:09.025Z,96.38
2022-07-30T21:54:48.432Z,100.00
2022-07-30T21:57:23.139Z,100.00
2022-07-30T21:59:55.347Z,100.00
2022-07-30T22:02:25.946Z,100.00
2022-07-30T22:04:56.587Z,100.00
2022-07-30T22:07:27.276Z,100.00
2022-07-30T22:09:55.222Z,100.00
2022-07-30T22:12:28.914Z,100.00
2022-07-30T22:14:57.103Z,100.00
2022-07-30T22:17:36.936Z,100.00
2022-07-30T22:20:15.163Z,100.00
2022-07-30T22:22:43.506Z,100.00
2022-07-30T22:25:12.183Z,100.00
2022-07-30T22:27:56.853Z,100.00
2022-07-30T22:30:27.105Z,100.00
2022-07-30T22:32:56.950Z,100.00
2022-07-30T22:35:33.794Z,100.00
2022-07-30T22:38:03.282Z,100.00
2022-07-30T22:40:31.379Z,100.00
2022-07-30T22:42:59.689Z,100.00
2022-07-30T22:45:47.140Z,100.00
2022-07-30T22:48:19.436Z,100.00
2022-07-30T22:50:51.858Z,100.00
2022-07-30T22:54:03.424Z,100.00
2022-07-30T22:56:14.178Z,100.00
2022-07-30T22:58:44.437Z,100.00
2022-07-30T23:01:12.582Z,100.00
2022-07-30T23:03:43.773Z,100.00
2022-07-30T23:06:14.733Z,100.00
2022-07-30T23:08:44.473Z,100.00
2022-07-30T23:11:12.803Z,100.00
2022-07-30T23:12:26.913Z,96.69
2022-07-30T23:13:42.502Z,100.00
2022-07-30T23:16:10.763Z,100.00
2022-07-30T23:18:39.068Z,100.00
2022-07-30T23:21:08.618Z,100.00
2022-07-30T23:23:36.777Z,100.00
2022-07-30T23:26:06.005Z,100.00
2022-07-30T23:28:34.454Z,100.00
2022-07-30T23:31:03.525Z,100.00
2022-07-30T23:33:32.494Z,100.00
2022-07-30T23:36:01.553Z,100.00
2022-07-30T23:38:30.912Z,100.00
2022-07-30T23:41:01.527Z,100.00
2022-07-30T23:43:31.231Z,100.00
2022-07-30T23:46:00.860Z,100.00
2022-07-30T23:48:29.481Z,100.00
2022-07-30T23:50:57.636Z,100.00
2022-07-30T23:53:26.019Z,100.00
2022-07-30T23:55:55.522Z,100.00
2022-07-30T23:58:23.492Z,100.00
